Hullsville, New York
Current Conditions -  °F | °C
As of 7:53 PM on Friday 19 Dec 2014 (Local Time) from KBGM Reporting Station
Overcast Overcast  
Wind Chill: 12°   Ceiling: 1100
Heat Index: 23°   Visibility: 10mi
Dew Point: 19°   Wind: 12mph
Humidity: 85%   Direction: 340°NNW
Pressure: 30.13"   Gusts: NA
Location:  42.1349°N, 76.2495°W
Report Text: KBGM 200053Z 34010KT 10SM OVC011 M05/M07 A3013 RMK AO2 SLP227 T10501072
Loading
Personal Weather Stations






























Interactive Weather Map New forecast layout! Learn more

10-Day Weather Forecast

Advertisements
Track Severe Weather on mobile